Time;durP1;ratioP1;P1;durP2;ratioP2;P2;SDS_P1;SDS_P2;PMS_P1;PMS_P2;Temp;Humidity;BMP_temperature;BMP_pressure;BME280_temperature;BME280_humidity;BME280_pressure;Samples;Min_cycle;Max_cycle;Signal;HPM_P1;HPM_P2
2022/11/13 00:01:19;;;;;;;32.13;18.23;;;19.80;99.90;;;;;;5039170;28;20033;-57
2022/11/13 00:03:47;;;;;;;30.00;18.75;;;20.00;99.90;;;;;;5029251;28;20044;-58
2022/11/13 00:06:15;;;;;;;33.30;19.20;;;20.10;99.90;;;;;;5027249;28;20060;-58
2022/11/13 00:08:42;;;;;;;34.90;20.77;;;20.20;99.90;;;;;;5028295;28;20045;-58
2022/11/13 00:11:13;;;;;;;29.48;19.13;;;20.30;99.90;;;;;;5028123;28;20029;-58
2022/11/13 00:13:42;;;;;;;28.55;19.08;;;20.50;99.90;;;;;;5026947;28;20017;-58
2022/11/13 00:16:14;;;;;;;32.00;18.08;;;20.60;99.90;;;;;;5028252;28;20474;-61
2022/11/13 00:18:42;;;;;;;29.77;17.52;;;20.70;99.90;;;;;;5024520;28;20029;-61
2022/11/13 00:21:21;;;;;;;27.95;18.25;;;20.80;99.90;;;;;;5026449;28;20034;-64
2022/11/13 00:23:48;;;;;;;31.05;20.15;;;20.90;99.90;;;;;;5028297;28;20025;-61
2022/11/13 00:26:22;;;;;;;31.20;18.40;;;20.90;99.90;;;;;;5028048;28;20454;-60
2022/11/13 00:28:54;;;;;;;31.02;19.45;;;21.00;99.90;;;;;;5029604;28;20120;-59
2022/11/13 00:31:22;;;;;;;24.13;16.83;;;21.10;99.90;;;;;;5049450;28;20037;-60
2022/11/13 00:33:50;;;;;;;26.35;16.77;;;21.20;99.90;;;;;;5031254;28;20375;-59
2022/11/13 00:36:21;;;;;;;24.80;17.73;;;21.20;99.90;;;;;;5023798;28;20101;-62
2022/11/13 00:38:48;;;;;;;20.98;15.35;;;21.30;99.90;;;;;;5021263;28;20026;-59
2022/11/13 00:41:16;;;;;;;21.98;16.38;;;21.30;99.90;;;;;;5023734;28;20026;-55
2022/11/13 00:43:43;;;;;;;22.25;16.27;;;21.30;99.90;;;;;;5034900;28;20485;-57
2022/11/13 00:46:11;;;;;;;22.60;15.65;;;21.30;99.90;;;;;;5029127;28;20025;-58
2022/11/13 00:48:38;;;;;;;21.95;15.45;;;21.30;99.90;;;;;;5026118;28;20021;-56
2022/11/13 00:51:06;;;;;;;21.90;16.05;;;21.30;99.90;;;;;;5028648;28;20034;-57
2022/11/13 00:53:33;;;;;;;30.08;18.02;;;21.10;99.90;;;;;;5029607;28;20136;-57
2022/11/13 00:56:01;;;;;;;29.05;17.75;;;21.00;99.90;;;;;;5029576;28;20103;-58
2022/11/13 00:58:28;;;;;;;26.90;19.45;;;20.90;99.90;;;;;;5029178;28;20025;-57
2022/11/13 01:01:02;;;;;;;29.20;19.35;;;20.90;99.90;;;;;;5028620;28;20022;-58
2022/11/13 01:03:29;;;;;;;35.35;22.90;;;20.80;99.90;;;;;;5029752;28;20048;-56
2022/11/13 01:05:59;;;;;;;34.15;20.92;;;20.80;99.90;;;;;;5027968;28;20060;-55
2022/11/13 01:08:26;;;;;;;31.60;19.48;;;20.80;99.90;;;;;;5025857;28;20087;-51
2022/11/13 01:10:54;;;;;;;26.55;18.45;;;20.90;99.90;;;;;;5029072;28;20072;-56
2022/11/13 01:13:21;;;;;;;26.75;18.25;;;21.30;99.90;;;;;;5028263;28;20036;-53
2022/11/13 01:15:48;;;;;;;22.67;17.65;;;21.70;99.90;;;;;;5028939;28;20040;-57
2022/11/13 01:18:15;;;;;;;25.00;15.00;;;22.50;99.90;;;;;;5030141;28;20020;-52
2022/11/13 01:20:42;;;;;;;21.90;14.25;;;22.80;99.90;;;;;;5032495;28;20030;-49
2022/11/13 01:23:10;;;;;;;21.25;14.63;;;23.10;99.90;;;;;;5032835;28;20028;-50
2022/11/13 01:25:37;;;;;;;23.05;15.25;;;23.20;99.90;;;;;;5032454;28;20030;-59
2022/11/13 01:28:04;;;;;;;27.70;14.23;;;23.70;99.90;;;;;;5032531;28;20029;-56
2022/11/13 01:30:31;;;;;;;18.77;12.93;;;24.10;99.90;;;;;;5032544;28;20018;-56
2022/11/13 01:32:59;;;;;;;23.60;11.43;;;24.60;99.90;;;;;;5029683;28;20052;-55
2022/11/13 01:35:26;;;;;;;23.35;12.55;;;24.80;99.90;;;;;;5030569;28;20022;-54
2022/11/13 01:37:53;;;;;;;23.30;12.43;;;24.90;99.90;;;;;;5031439;28;20025;-54
2022/11/13 01:40:20;;;;;;;20.92;11.63;;;25.10;99.90;;;;;;5031500;28;20029;-53
2022/11/13 01:42:47;;;;;;;16.33;10.80;;;25.50;99.90;;;;;;5030907;28;20025;-54
2022/11/13 01:45:51;;;;;;;12.75;8.23;;;26.10;99.90;;;;;;5031683;28;20018;-56
2022/11/13 01:48:19;;;;;;;9.57;7.88;;;26.90;99.90;;;;;;5028198;28;20021;-51
2022/11/13 01:50:46;;;;;;;10.18;6.43;;;27.40;99.80;;;;;;5031442;28;20084;-55
2022/11/13 01:53:13;;;;;;;8.18;6.43;;;28.00;97.50;;;;;;5034011;28;20041;-54
2022/11/13 01:55:41;;;;;;;7.18;5.68;;;28.50;97.60;;;;;;5030231;28;20025;-54
2022/11/13 01:58:09;;;;;;;6.30;5.38;;;28.70;93.80;;;;;;5027272;28;20032;-56
2022/11/13 02:00:37;;;;;;;8.25;5.97;;;28.50;93.70;;;;;;5023146;28;20036;-55
2022/11/13 02:03:04;;;;;;;5.93;4.72;;;28.50;93.20;;;;;;5019933;28;20031;-60
2022/11/13 02:05:31;;;;;;;8.10;5.47;;;28.40;90.60;;;;;;5032387;28;20064;-55
2022/11/13 02:07:59;;;;;;;7.38;5.22;;;28.20;93.20;;;;;;5025067;28;20025;-52
2022/11/13 02:10:26;;;;;;;6.53;4.55;;;28.50;94.10;;;;;;5026303;28;20095;-57
2022/11/13 02:12:54;;;;;;;7.88;5.13;;;28.70;92.60;;;;;;5029456;28;20694;-57
2022/11/13 02:15:24;;;;;;;13.10;5.28;;;28.80;93.10;;;;;;5029211;28;20092;-58
2022/11/13 02:18:00;;;;;;;9.18;4.97;;;29.30;93.50;;;;;;5028062;28;20489;-58
2022/11/13 02:20:49;;;;;;;6.88;5.00;;;29.80;92.20;;;;;;5026184;28;20083;-53
2022/11/13 02:23:41;;;;;;;9.25;6.22;;;30.00;90.00;;;;;;5025838;28;20068;-57
2022/11/13 02:26:10;;;;;;;7.03;4.75;;;29.80;90.40;;;;;;5025006;28;20021;-57
2022/11/13 02:28:37;;;;;;;6.88;4.90;;;30.30;91.00;;;;;;5027795;28;20026;-56
2022/11/13 02:31:10;;;;;;;8.13;5.30;;;30.30;89.10;;;;;;5026914;28;20029;-58
2022/11/13 02:33:37;;;;;;;6.03;4.97;;;30.20;90.80;;;;;;5027728;28;20096;-52
2022/11/13 02:36:06;;;;;;;6.80;3.53;;;30.20;90.70;;;;;;5027862;28;20461;-58
2022/11/13 02:38:35;;;;;;;8.48;4.28;;;30.30;88.90;;;;;;5027964;28;20104;-58
2022/11/13 02:41:02;;;;;;;4.95;3.45;;;30.70;87.30;;;;;;5026049;28;20048;-56
2022/11/13 02:43:30;;;;;;;5.50;3.10;;;30.40;81.70;;;;;;5028478;28;20478;-55
2022/11/13 02:45:57;;;;;;;4.70;2.90;;;30.10;86.70;;;;;;5028767;28;20467;-54
2022/11/13 02:48:24;;;;;;;4.82;2.90;;;30.00;84.20;;;;;;5028641;28;20663;-53
2022/11/13 02:50:51;;;;;;;8.45;3.60;;;30.10;85.10;;;;;;5028361;28;20065;-60
2022/11/13 02:53:18;;;;;;;4.88;3.10;;;30.20;83.30;;;;;;5028416;28;20127;-60
2022/11/13 02:55:46;;;;;;;7.18;2.97;;;30.30;86.90;;;;;;5027842;28;20553;-60
2022/11/13 02:58:13;;;;;;;6.38;3.35;;;30.60;82.20;;;;;;5027885;28;20029;-60
2022/11/13 03:00:40;;;;;;;3.88;2.60;;;30.40;87.30;;;;;;5028431;28;20393;-60
2022/11/13 03:03:07;;;;;;;3.78;2.67;;;30.20;83.70;;;;;;5027794;28;20018;-63
2022/11/13 03:05:35;;;;;;;3.25;2.33;;;30.20;85.00;;;;;;5025630;28;20110;-60
2022/11/13 03:08:02;;;;;;;11.65;3.85;;;29.90;83.60;;;;;;5028692;28;20405;-60
2022/11/13 03:10:29;;;;;;;4.10;2.53;;;29.80;83.50;;;;;;5027989;28;20119;-60
2022/11/13 03:12:57;;;;;;;4.00;2.63;;;29.70;83.20;;;;;;5028075;28;20029;-60
2022/11/13 03:15:24;;;;;;;5.38;2.70;;;29.80;84.20;;;;;;5026109;28;20025;-61
2022/11/13 03:17:52;;;;;;;3.60;2.10;;;29.60;85.00;;;;;;5026330;28;20031;-60
2022/11/13 03:20:19;;;;;;;6.15;2.20;;;30.00;86.80;;;;;;5027907;28;20525;-60
2022/11/13 03:22:46;;;;;;;8.05;3.38;;;30.60;86.20;;;;;;5026206;28;20498;-60
2022/11/13 03:25:13;;;;;;;4.88;2.75;;;30.90;80.80;;;;;;5027672;28;20029;-62
2022/11/13 03:27:41;;;;;;;10.02;3.13;;;31.00;80.20;;;;;;5028017;28;20025;-60
2022/11/13 03:30:08;;;;;;;4.20;2.33;;;30.60;79.60;;;;;;5027383;28;20028;-60
2022/11/13 03:32:35;;;;;;;4.07;2.80;;;30.30;83.20;;;;;;5027860;28;20106;-60
2022/11/13 03:35:03;;;;;;;4.28;2.78;;;30.30;81.40;;;;;;5028072;28;20482;-60
2022/11/13 03:37:30;;;;;;;4.53;2.67;;;30.30;81.80;;;;;;5028055;28;20508;-60
2022/11/13 03:39:57;;;;;;;5.38;2.72;;;30.00;82.70;;;;;;5026269;28;20025;-59
2022/11/13 03:42:25;;;;;;;4.55;2.53;;;29.70;83.40;;;;;;5027267;28;20402;-60
2022/11/13 03:44:52;;;;;;;4.60;2.42;;;29.60;84.10;;;;;;5026845;28;20065;-60
2022/11/13 03:47:19;;;;;;;6.47;2.90;;;29.30;82.70;;;;;;5026053;28;20041;-60
2022/11/13 03:49:46;;;;;;;4.97;2.70;;;29.20;83.40;;;;;;5027601;28;20029;-60
2022/11/13 03:52:13;;;;;;;6.32;2.67;;;29.10;86.20;;;;;;5027149;28;20041;-62
2022/11/13 03:54:41;;;;;;;3.35;2.10;;;29.20;85.60;;;;;;5027297;28;20025;-60
2022/11/13 03:57:08;;;;;;;4.05;2.63;;;29.10;84.50;;;;;;5027348;28;20164;-61
2022/11/13 03:59:35;;;;;;;3.83;2.20;;;28.90;85.70;;;;;;5026101;28;20744;-61
2022/11/13 04:02:02;;;;;;;6.10;2.97;;;28.80;86.00;;;;;;5027335;28;20032;-60
2022/11/13 04:04:29;;;;;;;4.45;2.33;;;28.90;85.50;;;;;;5026932;28;20040;-60
2022/11/13 04:06:57;;;;;;;4.75;2.35;;;28.60;86.30;;;;;;5025218;28;20033;-60
2022/11/13 04:09:24;;;;;;;4.53;2.10;;;28.40;87.90;;;;;;5024540;28;20026;-60
2022/11/13 04:11:51;;;;;;;3.47;2.00;;;28.40;87.00;;;;;;5024130;28;20402;-60
2022/11/13 04:14:18;;;;;;;5.78;1.20;;;28.60;87.90;;;;;;5025368;28;20022;-59
2022/11/13 04:16:46;;;;;;;2.67;1.33;;;28.40;84.20;;;;;;5022683;28;20732;-60
2022/11/13 04:19:13;;;;;;;4.30;1.40;;;28.40;83.90;;;;;;5032167;28;20029;-59
2022/11/13 04:21:40;;;;;;;2.80;1.20;;;28.30;84.30;;;;;;5024612;28;20533;-60
2022/11/13 04:24:07;;;;;;;4.88;1.35;;;28.40;85.10;;;;;;5019983;28;20030;-61
2022/11/13 04:26:34;;;;;;;4.68;1.35;;;28.60;83.50;;;;;;5024504;28;20108;-59
2022/11/13 04:29:02;;;;;;;1.90;0.93;;;28.40;83.60;;;;;;5023397;28;20417;-60
2022/11/13 04:31:29;;;;;;;3.90;1.20;;;28.60;84.90;;;;;;5024411;28;20037;-60
2022/11/13 04:33:56;;;;;;;2.75;1.00;;;28.80;83.00;;;;;;5012382;28;20714;-59
2022/11/13 04:36:23;;;;;;;1.73;1.02;;;28.80;83.30;;;;;;5023643;28;20095;-62
2022/11/13 04:38:51;;;;;;;3.53;1.50;;;28.80;83.70;;;;;;5024496;28;20072;-61
2022/11/13 04:44:04;;;;;;;5.00;1.08;;;28.90;83.20;;;;;;5024139;28;20040;-60
2022/11/13 04:46:31;;;;;;;2.58;0.93;;;28.90;81.10;;;;;;5023083;28;20029;-59
2022/11/13 04:48:58;;;;;;;4.57;1.23;;;28.90;81.80;;;;;;5022692;28;20120;-60
2022/11/13 04:51:25;;;;;;;4.15;0.98;;;28.80;82.10;;;;;;5024367;28;20065;-60
2022/11/13 04:53:52;;;;;;;2.40;1.55;;;28.60;82.20;;;;;;5026033;28;20041;-60
2022/11/13 04:56:20;;;;;;;1.55;0.88;;;28.70;82.90;;;;;;5026576;28;20036;-60
2022/11/13 04:58:47;;;;;;;2.67;0.93;;;28.80;82.90;;;;;;5028221;28;20160;-59
2022/11/13 05:01:14;;;;;;;1.42;0.82;;;28.80;81.50;;;;;;5028239;28;20385;-59
2022/11/13 05:03:42;;;;;;;1.17;0.80;;;28.70;82.20;;;;;;5028150;28;20030;-58
2022/11/13 05:06:10;;;;;;;2.88;1.00;;;28.70;81.60;;;;;;5028259;28;20029;-58
2022/11/13 05:08:38;;;;;;;4.63;1.13;;;28.70;82.50;;;;;;5027946;28;20056;-58
2022/11/13 05:11:05;;;;;;;1.70;0.70;;;28.70;83.10;;;;;;5028293;28;20041;-59
2022/11/13 05:13:35;;;;;;;1.92;0.85;;;28.60;82.70;;;;;;5028338;28;20032;-58
2022/11/13 05:16:04;;;;;;;2.08;0.80;;;28.60;82.40;;;;;;5028405;28;20041;-58
2022/11/13 05:18:32;;;;;;;1.73;0.88;;;28.50;82.90;;;;;;5026901;28;20030;-59
2022/11/13 05:21:00;;;;;;;4.97;0.80;;;28.40;82.90;;;;;;5028156;28;20032;-59
2022/11/13 05:23:27;;;;;;;1.05;0.63;;;28.40;83.60;;;;;;5027773;28;20227;-58
2022/11/13 05:26:05;;;;;;;1.98;0.77;;;28.20;83.30;;;;;;5026465;28;20030;-58
2022/11/13 05:28:33;;;;;;;4.20;0.85;;;28.20;83.30;;;;;;5029671;28;20113;-61
2022/11/13 05:31:14;;;;;;;2.58;1.88;;;28.00;84.70;;;;;;5029210;28;20056;-61
2022/11/13 05:33:43;;;;;;;2.53;0.70;;;27.70;86.00;;;;;;5028099;28;20040;-57
2022/11/13 05:36:13;;;;;;;2.22;1.45;;;27.60;86.70;;;;;;5029672;28;20128;-57
2022/11/13 05:38:41;;;;;;;2.55;0.75;;;27.40;86.50;;;;;;5028168;28;20025;-59
2022/11/13 05:41:16;;;;;;;2.00;1.10;;;27.30;88.70;;;;;;5028860;28;20045;-58
2022/11/13 05:43:44;;;;;;;2.75;0.95;;;27.10;88.80;;;;;;5030679;28;20132;-59
2022/11/13 05:46:17;;;;;;;1.75;1.10;;;27.00;90.00;;;;;;5029484;28;20033;-60
2022/11/13 05:48:46;;;;;;;2.30;0.90;;;26.90;90.00;;;;;;5029516;28;20049;-59
2022/11/13 05:51:16;;;;;;;2.15;1.00;;;26.90;90.10;;;;;;5027826;28;20680;-58
2022/11/13 05:53:44;;;;;;;3.00;1.20;;;26.80;90.30;;;;;;5011010;28;20148;-59
2022/11/13 05:56:12;;;;;;;3.08;0.95;;;26.60;90.40;;;;;;5022125;28;20037;-58
2022/11/13 05:58:42;;;;;;;2.03;0.98;;;26.70;90.80;;;;;;5030791;28;20409;-59
2022/11/13 06:01:20;;;;;;;2.42;0.82;;;27.00;90.70;;;;;;5032392;28;20032;-59
2022/11/13 06:03:48;;;;;;;1.80;1.02;;;27.30;90.20;;;;;;5037374;28;20021;-58
2022/11/13 06:06:18;;;;;;;3.80;0.90;;;27.40;89.30;;;;;;5041379;28;20517;-58
2022/11/13 06:08:46;;;;;;;1.92;0.93;;;27.40;88.50;;;;;;5019907;28;20029;-59
2022/11/13 06:11:17;;;;;;;1.52;1.00;;;27.30;90.10;;;;;;5033217;28;20037;-59
2022/11/13 06:13:45;;;;;;;3.08;1.05;;;27.10;88.60;;;;;;5036024;28;20017;-60
2022/11/13 06:16:19;;;;;;;1.95;0.98;;;26.90;90.30;;;;;;5031130;28;20355;-58
2022/11/13 06:18:48;;;;;;;2.50;1.02;;;26.90;89.60;;;;;;5033638;28;20033;-57
2022/11/13 06:21:18;;;;;;;5.03;1.13;;;26.70;90.80;;;;;;5030197;28;20045;-59
2022/11/13 06:23:45;;;;;;;3.17;1.40;;;26.60;91.30;;;;;;5027301;28;20029;-59
2022/11/13 06:26:19;;;;;;;2.47;1.25;;;26.60;91.10;;;;;;5034730;28;20036;-59
2022/11/13 06:28:46;;;;;;;2.80;1.23;;;26.50;91.60;;;;;;5031241;28;20029;-59
2022/11/13 06:31:26;;;;;;;3.95;1.25;;;26.30;91.70;;;;;;5038316;28;20382;-59
2022/11/13 06:33:53;;;;;;;5.13;1.50;;;26.10;92.30;;;;;;5037858;28;20067;-59
2022/11/13 06:36:26;;;;;;;2.88;1.50;;;25.90;92.30;;;;;;5041709;28;20030;-59
2022/11/13 06:38:53;;;;;;;2.72;1.08;;;25.70;93.00;;;;;;5027735;28;20025;-59
2022/11/13 06:41:23;;;;;;;4.22;1.33;;;25.70;93.20;;;;;;5028153;28;20512;-58
2022/11/13 06:43:56;;;;;;;5.88;1.85;;;25.60;93.80;;;;;;5030138;28;20021;-58
2022/11/13 06:46:26;;;;;;;2.80;1.83;;;25.50;94.00;;;;;;5026804;28;20026;-60
2022/11/13 06:48:54;;;;;;;3.83;1.40;;;25.40;94.20;;;;;;5032245;28;20053;-61
2022/11/13 06:51:24;;;;;;;4.07;1.40;;;25.30;94.50;;;;;;5033754;28;20040;-61
2022/11/13 06:53:51;;;;;;;3.85;1.70;;;25.30;94.80;;;;;;5049764;28;20118;-61
2022/11/13 06:56:18;;;;;;;4.70;1.90;;;25.30;94.80;;;;;;5034350;28;20497;-61
2022/11/13 06:58:46;;;;;;;3.42;1.35;;;25.20;95.00;;;;;;5029270;28;20053;-61
2022/11/13 07:01:21;;;;;;;2.08;1.10;;;25.20;95.40;;;;;;5029843;28;20478;-61
2022/11/13 07:03:49;;;;;;;4.60;2.08;;;25.00;96.00;;;;;;5031767;28;20025;-61
2022/11/13 07:06:19;;;;;;;5.57;1.63;;;24.90;95.70;;;;;;5030622;28;20040;-62
2022/11/13 07:08:47;;;;;;;6.03;1.52;;;24.80;96.30;;;;;;5030613;28;20029;-61
2022/11/13 07:11:18;;;;;;;4.30;1.90;;;24.70;96.50;;;;;;5030547;28;20051;-61
2022/11/13 07:13:46;;;;;;;5.82;2.97;;;24.70;96.70;;;;;;5029240;28;20536;-61
2022/11/13 07:16:14;;;;;;;3.72;1.55;;;24.60;97.20;;;;;;5029909;28;20320;-60
2022/11/13 07:18:41;;;;;;;3.35;1.60;;;24.50;97.30;;;;;;5030362;28;20025;-61
2022/11/13 07:21:11;;;;;;;2.45;1.60;;;24.40;97.60;;;;;;5030891;28;20033;-66
2022/11/13 07:23:44;;;;;;;3.97;1.48;;;24.30;98.10;;;;;;5030340;28;20021;-61
2022/11/13 07:26:12;;;;;;;4.20;1.55;;;24.20;98.20;;;;;;5026961;28;20025;-61
2022/11/13 07:28:39;;;;;;;4.63;1.38;;;24.20;98.30;;;;;;5027608;28;20025;-61
2022/11/13 07:31:07;;;;;;;5.63;2.25;;;24.00;98.70;;;;;;5028295;28;20033;-61
2022/11/13 07:33:35;;;;;;;4.32;1.40;;;24.00;98.90;;;;;;5027892;28;20461;-60
2022/11/13 07:36:02;;;;;;;2.65;1.50;;;23.90;99.10;;;;;;5027584;28;20099;-61
2022/11/13 07:38:29;;;;;;;3.15;1.92;;;23.90;99.50;;;;;;5027646;28;20064;-60
2022/11/13 07:40:58;;;;;;;3.35;1.30;;;23.80;99.80;;;;;;5026420;28;20095;-60
2022/11/13 07:43:26;;;;;;;6.38;1.67;;;23.80;99.90;;;;;;5026169;28;20415;-60
2022/11/13 07:45:54;;;;;;;3.45;1.75;;;23.80;99.80;;;;;;5027204;28;20474;-60
2022/11/13 07:48:22;;;;;;;4.53;1.98;;;23.70;99.90;;;;;;5025562;28;20029;-61
2022/11/13 07:50:50;;;;;;;8.23;2.25;;;23.70;99.90;;;;;;5025845;28;20130;-61
2022/11/13 07:53:19;;;;;;;3.55;1.65;;;23.60;99.90;;;;;;5027033;28;20045;-62
2022/11/13 07:55:46;;;;;;;3.80;1.70;;;23.50;99.90;;;;;;5027214;28;20033;-61
2022/11/13 07:58:14;;;;;;;4.45;1.65;;;23.50;99.90;;;;;;5026594;28;20040;-59
2022/11/13 08:00:41;;;;;;;8.30;1.77;;;23.40;99.90;;;;;;5019602;28;20044;-58
2022/11/13 08:03:14;;;;;;;3.92;1.80;;;23.40;99.90;;;;;;5026223;28;20025;-60
2022/11/13 08:05:42;;;;;;;8.77;1.60;;;23.40;99.90;;;;;;5025697;28;20033;-60
2022/11/13 08:08:14;;;;;;;3.20;1.70;;;23.30;99.90;;;;;;5027086;28;20026;-61
2022/11/13 08:10:41;;;;;;;6.10;2.30;;;23.20;99.90;;;;;;5026511;28;20029;-60
2022/11/13 08:13:10;;;;;;;6.72;2.25;;;23.00;99.90;;;;;;5028921;28;20030;-61
2022/11/13 08:15:38;;;;;;;8.73;2.17;;;22.90;99.90;;;;;;5029692;28;20029;-59
2022/11/13 08:18:06;;;;;;;4.68;2.10;;;22.80;99.90;;;;;;5029776;28;20018;-55
2022/11/13 08:20:33;;;;;;;7.25;2.33;;;22.60;99.90;;;;;;5029378;28;20026;-52
2022/11/13 08:23:02;;;;;;;6.28;3.17;;;22.40;99.90;;;;;;5028579;28;20063;-55
2022/11/13 08:25:31;;;;;;;4.32;2.45;;;22.30;99.90;;;;;;5029041;28;20474;-55
2022/11/13 08:27:59;;;;;;;6.22;3.55;;;22.10;99.90;;;;;;5028695;28;20108;-55
2022/11/13 08:30:27;;;;;;;5.55;3.15;;;22.00;99.90;;;;;;5029400;28;20033;-52
2022/11/13 08:32:55;;;;;;;7.22;2.60;;;21.90;99.90;;;;;;5028382;28;20479;-55
2022/11/13 08:35:22;;;;;;;6.80;3.22;;;21.80;99.90;;;;;;5028827;28;20052;-52
2022/11/13 08:37:50;;;;;;;3.75;2.45;;;21.70;99.90;;;;;;5028258;28;20112;-58
2022/11/13 08:40:17;;;;;;;10.52;3.95;;;21.70;99.90;;;;;;5029338;28;20036;-58
2022/11/13 08:42:44;;;;;;;6.95;2.70;;;21.60;99.90;;;;;;5028599;28;20036;-58
2022/11/13 08:45:12;;;;;;;6.97;3.60;;;21.50;99.90;;;;;;5016480;28;20443;-59
2022/11/13 08:47:39;;;;;;;4.97;3.25;;;21.40;99.90;;;;;;5029715;28;20029;-58
2022/11/13 08:50:07;;;;;;;6.72;3.97;;;21.40;99.90;;;;;;5028772;28;20040;-58
2022/11/13 08:52:34;;;;;;;13.93;5.32;;;21.30;99.90;;;;;;5028535;28;20098;-58
2022/11/13 08:55:01;;;;;;;13.25;6.57;;;21.20;99.90;;;;;;5028818;28;20108;-58
2022/11/13 08:57:28;;;;;;;13.10;5.45;;;21.20;99.90;;;;;;5028952;28;20026;-58
2022/11/13 08:59:55;;;;;;;5.47;2.95;;;21.10;99.90;;;;;;5029235;28;20044;-59
2022/11/13 09:02:24;;;;;;;4.28;2.55;;;21.10;99.90;;;;;;5007498;28;20030;-58
2022/11/13 09:04:51;;;;;;;4.65;2.67;;;21.10;99.90;;;;;;5023834;28;20021;-58
2022/11/13 09:07:18;;;;;;;5.05;2.63;;;21.00;99.90;;;;;;5026923;28;20041;-58
2022/11/13 09:09:45;;;;;;;4.07;2.60;;;20.90;99.90;;;;;;5027225;28;20021;-59
2022/11/13 09:12:12;;;;;;;6.80;3.33;;;20.90;99.90;;;;;;5026553;28;20029;-59
2022/11/13 09:14:40;;;;;;;16.75;5.35;;;20.90;99.90;;;;;;5028749;28;20021;-59
2022/11/13 09:17:07;;;;;;;20.10;6.03;;;20.80;99.90;;;;;;5028056;28;20025;-58
2022/11/13 09:19:34;;;;;;;13.07;6.10;;;20.80;99.90;;;;;;5028847;28;20013;-59
2022/11/13 09:22:01;;;;;;;13.98;5.95;;;20.80;99.90;;;;;;5027863;28;20025;-58
2022/11/13 09:24:29;;;;;;;12.05;4.97;;;20.80;99.90;;;;;;5028564;28;20029;-58
2022/11/13 09:26:56;;;;;;;8.40;4.57;;;20.80;99.90;;;;;;5028386;28;20026;-58
2022/11/13 09:29:25;;;;;;;5.07;3.00;;;20.80;99.90;;;;;;5027529;28;20582;-58
2022/11/13 09:31:53;;;;;;;5.28;2.70;;;20.80;99.90;;;;;;5028426;28;20048;-59
2022/11/13 09:34:21;;;;;;;8.05;3.50;;;20.80;99.90;;;;;;5028254;28;20021;-59
2022/11/13 09:36:48;;;;;;;5.50;2.78;;;20.80;99.90;;;;;;5009140;28;20037;-58
2022/11/13 09:39:16;;;;;;;8.73;3.67;;;20.80;99.90;;;;;;5010219;28;20076;-59
2022/11/13 09:41:51;;;;;;;14.25;3.78;;;20.80;99.90;;;;;;5022075;28;20432;-59
2022/11/13 09:44:49;;;;;;;12.90;5.38;;;20.80;99.90;;;;;;5019599;28;20017;-59
2022/11/13 09:47:27;;;;;;;14.27;5.20;;;20.90;99.90;;;;;;5019264;28;20042;-58
2022/11/13 09:50:02;;;;;;;8.23;3.40;;;20.80;99.90;;;;;;5017509;28;20605;-59
2022/11/13 09:52:38;;;;;;;5.95;3.42;;;20.80;99.90;;;;;;5028710;28;20076;-60
2022/11/13 09:55:06;;;;;;;7.22;3.10;;;20.80;99.90;;;;;;5032494;28;20026;-58
2022/11/13 09:57:36;;;;;;;10.55;4.15;;;20.80;99.90;;;;;;5028480;28;20033;-58
2022/11/13 10:00:11;;;;;;;6.15;3.08;;;20.80;99.90;;;;;;5026375;28;20025;-59
2022/11/13 10:02:44;;;;;;;9.07;4.22;;;20.80;99.90;;;;;;5028208;28;20037;-59
2022/11/13 10:05:39;;;;;;;8.80;3.33;;;20.70;99.90;;;;;;5024376;28;20133;-60
2022/11/13 10:08:11;;;;;;;5.53;2.47;;;20.70;99.90;;;;;;5025303;28;20095;-59
2022/11/13 10:10:57;;;;;;;5.78;2.80;;;20.60;99.90;;;;;;5027863;28;20038;-59
2022/11/13 10:13:32;;;;;;;4.88;3.00;;;20.60;99.90;;;;;;5022590;28;20029;-58
2022/11/13 10:16:14;;;;;;;6.65;3.95;;;20.60;99.90;;;;;;5029402;28;20036;-58
2022/11/13 10:18:43;;;;;;;10.68;4.20;;;20.50;99.90;;;;;;5029468;28;20018;-60
2022/11/13 10:21:43;;;;;;;7.78;3.63;;;20.50;99.90;;;;;;5028150;28;20029;-58
2022/11/13 10:24:24;;;;;;;6.68;3.67;;;20.40;99.90;;;;;;5028744;28;20380;-58
2022/11/13 10:26:52;;;;;;;3.95;2.50;;;20.40;99.90;;;;;;5024091;28;20029;-59
2022/11/13 10:29:21;;;;;;;5.80;2.78;;;20.40;99.90;;;;;;5028639;28;20120;-58
2022/11/13 10:31:51;;;;;;;5.15;2.30;;;20.40;99.90;;;;;;5028543;28;20041;-59
2022/11/13 10:34:19;;;;;;;5.03;2.80;;;20.40;99.90;;;;;;5026528;28;20021;-61
2022/11/13 10:37:04;;;;;;;6.38;2.95;;;20.30;99.90;;;;;;5027952;28;20032;-59
2022/11/13 10:39:40;;;;;;;7.80;2.33;;;20.40;99.90;;;;;;5022829;28;20026;-60
2022/11/13 10:42:35;;;;;;;5.38;2.95;;;20.40;99.90;;;;;;5029795;28;20033;-60
2022/11/13 10:45:03;;;;;;;7.07;3.42;;;20.40;99.90;;;;;;5024832;28;20083;-60
2022/11/13 10:47:33;;;;;;;7.55;2.70;;;20.40;99.90;;;;;;5026611;28;20113;-62
2022/11/13 10:50:34;;;;;;;9.23;2.70;;;20.40;99.90;;;;;;5031305;28;20770;-60
2022/11/13 10:53:01;;;;;;;8.55;2.83;;;20.40;99.90;;;;;;5027902;28;20060;-60
2022/11/13 10:55:31;;;;;;;8.82;2.78;;;20.40;99.90;;;;;;5025217;28;20390;-60
2022/11/13 10:58:01;;;;;;;9.88;3.70;;;20.40;99.90;;;;;;5025623;28;20084;-60
2022/11/13 11:00:38;;;;;;;9.40;4.28;;;20.40;99.90;;;;;;5030827;28;20017;-60
2022/11/13 11:03:13;;;;;;;9.57;3.90;;;20.30;99.90;;;;;;5028767;28;20064;-60
2022/11/13 11:05:58;;;;;;;8.25;3.53;;;20.30;99.90;;;;;;5028392;28;20380;-59
2022/11/13 11:08:35;;;;;;;5.95;2.35;;;20.40;99.90;;;;;;5028926;28;20087;-60
2022/11/13 11:14:17;;;;;;;3.10;2.28;;;20.30;99.90;;;;;;5030704;28;20076;-59
2022/11/13 11:16:46;;;;;;;6.28;2.03;;;20.30;99.90;;;;;;5026739;28;20180;-59
2022/11/13 11:19:15;;;;;;;4.20;2.33;;;20.20;99.90;;;;;;5024772;28;20394;-60
2022/11/13 11:21:47;;;;;;;4.03;2.35;;;20.20;99.90;;;;;;5023274;28;20030;-59
2022/11/13 11:24:31;;;;;;;5.97;2.03;;;20.20;99.90;;;;;;5032308;28;20026;-59
2022/11/13 11:27:05;;;;;;;5.57;2.08;;;20.20;99.90;;;;;;5027296;28;20029;-59
2022/11/13 11:30:09;;;;;;;6.72;2.28;;;20.20;99.90;;;;;;5024358;28;20029;-60
2022/11/13 11:32:50;;;;;;;4.37;2.67;;;20.20;99.90;;;;;;5031563;28;20072;-60
2022/11/13 11:35:40;;;;;;;4.80;2.15;;;20.10;99.90;;;;;;5038209;28;20288;-59
2022/11/13 11:38:20;;;;;;;10.52;2.65;;;20.10;99.90;;;;;;5036161;28;20190;-59
2022/11/13 11:40:53;;;;;;;5.38;2.72;;;20.10;99.90;;;;;;5021691;28;20063;-58
2022/11/13 11:44:15;;;;;;;4.75;2.65;;;20.10;99.90;;;;;;5027011;28;20022;-59
2022/11/13 11:46:42;;;;;;;5.55;3.17;;;20.10;99.90;;;;;;5023878;28;20037;-59
2022/11/13 11:49:10;;;;;;;6.75;2.60;;;20.00;99.90;;;;;;5027366;28;20042;-59
2022/11/13 11:52:03;;;;;;;5.60;2.42;;;20.00;99.90;;;;;;5028501;28;20547;-61
2022/11/13 11:54:48;;;;;;;9.52;3.28;;;20.00;99.90;;;;;;5024212;28;20124;-59
2022/11/13 11:57:30;;;;;;;9.95;2.90;;;20.00;99.90;;;;;;5035147;28;20109;-59
2022/11/13 12:00:14;;;;;;;7.57;3.10;;;20.00;99.90;;;;;;5027432;28;20026;-59
2022/11/13 12:03:09;;;;;;;8.02;3.30;;;20.00;99.90;;;;;;5026813;28;20064;-63
2022/11/13 12:06:14;;;;;;;7.00;2.33;;;20.00;99.90;;;;;;5028810;28;20021;-59
2022/11/13 12:09:04;;;;;;;3.45;2.22;;;20.00;99.90;;;;;;5030601;28;20543;-62
2022/11/13 12:11:34;;;;;;;5.53;2.33;;;20.00;99.90;;;;;;5052518;28;20624;-59
2022/11/13 12:14:22;;;;;;;6.25;2.60;;;20.00;99.90;;;;;;5032871;28;20057;-59
2022/11/13 12:17:07;;;;;;;7.22;2.80;;;20.00;99.90;;;;;;5026797;28;20097;-60
2022/11/13 12:19:56;;;;;;;8.40;3.10;;;20.10;99.90;;;;;;5023898;28;20122;-59
2022/11/13 12:22:45;;;;;;;8.38;4.18;;;20.00;99.90;;;;;;5024313;28;20506;-59
2022/11/13 12:25:28;;;;;;;9.20;4.95;;;20.00;99.90;;;;;;5025723;28;20041;-60
2022/11/13 12:28:11;;;;;;;12.75;4.50;;;20.10;99.90;;;;;;5027711;28;20512;-59
2022/11/13 12:31:06;;;;;;;8.57;3.50;;;20.10;99.90;;;;;;5027935;28;20042;-59
2022/11/13 12:34:06;;;;;;;10.65;4.05;;;20.10;99.90;;;;;;5029485;28;20017;-59
2022/11/13 12:36:34;;;;;;;7.40;2.65;;;20.10;99.90;;;;;;5025388;28;20026;-59
2022/11/13 12:39:40;;;;;;;7.40;2.33;;;20.10;99.90;;;;;;5032978;28;20586;-59
2022/11/13 12:42:13;;;;;;;6.35;2.60;;;20.10;99.90;;;;;;5022104;28;20048;-59
2022/11/13 12:44:56;;;;;;;6.28;2.70;;;20.00;99.90;;;;;;5008144;28;20077;-58
2022/11/13 12:47:24;;;;;;;3.13;2.58;;;20.00;99.90;;;;;;5017464;28;20057;-58
2022/11/13 12:50:03;;;;;;;8.13;3.15;;;19.90;99.90;;;;;;5024244;28;20386;-58
2022/11/13 12:52:30;;;;;;;15.18;3.83;;;19.90;99.90;;;;;;5039760;28;20860;-59
2022/11/13 12:55:07;;;;;;;5.03;2.88;;;19.90;99.90;;;;;;5029412;28;20025;-58
2022/11/13 12:57:45;;;;;;;7.15;3.00;;;19.80;99.90;;;;;;5020396;28;20409;-58
2022/11/13 13:00:25;;;;;;;4.68;3.00;;;19.80;99.90;;;;;;5026485;28;20509;-59
2022/11/13 13:03:17;;;;;;;8.57;3.90;;;19.70;99.90;;;;;;5026677;28;20033;-59
2022/11/13 13:06:20;;;;;;;13.15;4.63;;;19.70;99.90;;;;;;5037049;28;20025;-59
2022/11/13 13:08:56;;;;;;;9.77;4.30;;;19.70;99.90;;;;;;5034973;28;20041;-60
2022/11/13 13:11:38;;;;;;;15.90;6.13;;;19.70;99.90;;;;;;5028994;28;20397;-59